Time;durP1;ratioP1;P1;durP2;ratioP2;P2;SDS_P1;SDS_P2;PMS_P1;PMS_P2;Temp;Humidity;BMP_temperature;BMP_pressure;BME280_temperature;BME280_humidity;BME280_pressure;Samples;Min_cycle;Max_cycle;Signal;HPM_P1;HPM_P2
2021/01/15 00:01:44;;;;;;;14.32;8.68;;;1.70;83.10;;;;;;5027531;28;20041;-57
2021/01/15 00:04:10;;;;;;;14.23;7.95;;;1.70;83.50;;;;;;5024030;28;20037;-56
2021/01/15 00:06:35;;;;;;;12.48;7.68;;;1.70;83.70;;;;;;5020847;28;20042;-56
2021/01/15 00:09:01;;;;;;;14.88;8.15;;;1.60;84.00;;;;;;5043633;28;20065;-56
2021/01/15 00:11:30;;;;;;;15.98;8.93;;;1.60;84.40;;;;;;5017061;28;20092;-53
2021/01/15 00:13:57;;;;;;;14.13;7.78;;;1.70;84.10;;;;;;5027362;28;20072;-56
2021/01/15 00:16:28;;;;;;;15.40;8.32;;;1.70;83.90;;;;;;5005153;28;20092;-55
2021/01/15 00:18:55;;;;;;;13.15;7.68;;;1.60;84.00;;;;;;5024860;28;20049;-56
2021/01/15 00:21:23;;;;;;;13.50;8.43;;;1.70;83.80;;;;;;5023163;28;20382;-56
2021/01/15 00:23:54;;;;;;;16.77;8.95;;;1.70;83.70;;;;;;5024726;28;20103;-56
2021/01/15 00:26:22;;;;;;;15.50;8.68;;;1.60;83.90;;;;;;5024723;28;20494;-56
2021/01/15 00:28:48;;;;;;;15.95;8.35;;;1.60;84.00;;;;;;5017438;28;20133;-56
2021/01/15 00:31:14;;;;;;;14.35;8.20;;;1.50;84.50;;;;;;5026647;28;20092;-55
2021/01/15 00:33:40;;;;;;;14.07;8.35;;;1.50;84.60;;;;;;5036058;28;20049;-56
2021/01/15 00:36:07;;;;;;;13.40;8.00;;;1.40;84.80;;;;;;5032260;28;20482;-56
2021/01/15 00:38:34;;;;;;;14.05;8.05;;;1.50;84.60;;;;;;5029270;28;20188;-54
2021/01/15 00:41:01;;;;;;;16.83;8.63;;;1.70;83.80;;;;;;5029416;28;20320;-56
2021/01/15 00:43:27;;;;;;;14.35;8.68;;;1.70;83.80;;;;;;5041024;28;20041;-56
2021/01/15 00:45:53;;;;;;;14.32;8.57;;;1.70;83.60;;;;;;5035454;28;20049;-56
2021/01/15 00:48:19;;;;;;;14.75;8.60;;;1.80;83.10;;;;;;5034775;28;20048;-56
2021/01/15 00:50:45;;;;;;;13.07;7.95;;;1.60;84.00;;;;;;5025969;28;20041;-56
2021/01/15 00:53:11;;;;;;;14.52;8.70;;;1.50;84.70;;;;;;5048250;28;20061;-54
2021/01/15 00:55:36;;;;;;;16.40;8.55;;;1.50;85.10;;;;;;5038531;28;20386;-54
2021/01/15 00:58:03;;;;;;;14.32;8.45;;;1.50;85.20;;;;;;5034575;28;20049;-56
2021/01/15 01:00:29;;;;;;;14.60;8.88;;;1.60;85.00;;;;;;5026774;28;20462;-56
2021/01/15 01:02:58;;;;;;;17.23;8.95;;;1.60;84.70;;;;;;5029936;28;20046;-56
2021/01/15 01:05:25;;;;;;;13.65;8.43;;;1.50;84.80;;;;;;5018821;28;20073;-57
2021/01/15 01:07:51;;;;;;;16.52;8.25;;;1.50;85.20;;;;;;5030992;28;20069;-57
2021/01/15 01:10:18;;;;;;;15.27;8.57;;;1.50;85.10;;;;;;5029668;28;20114;-57
2021/01/15 01:12:44;;;;;;;13.40;8.52;;;1.60;84.70;;;;;;5032312;28;20486;-56
2021/01/15 01:15:12;;;;;;;17.05;7.72;;;1.60;84.70;;;;;;5027610;28;20045;-56
2021/01/15 01:17:38;;;;;;;15.05;8.07;;;1.70;84.00;;;;;;5032918;28;20098;-57
2021/01/15 01:20:09;;;;;;;15.05;8.82;;;1.60;84.40;;;;;;5008551;28;20049;-57
2021/01/15 01:22:35;;;;;;;13.52;8.18;;;1.50;84.60;;;;;;5030013;28;20486;-57
2021/01/15 01:25:00;;;;;;;15.40;7.97;;;1.70;83.90;;;;;;5030950;28;20044;-57
2021/01/15 01:27:26;;;;;;;15.07;8.30;;;1.70;84.20;;;;;;5048048;28;20045;-56
2021/01/15 01:29:52;;;;;;;15.23;8.43;;;1.70;84.30;;;;;;5027036;28;20394;-56
2021/01/15 01:32:18;;;;;;;15.57;9.40;;;1.60;84.40;;;;;;5031132;28;20057;-57
2021/01/15 01:34:44;;;;;;;15.15;8.50;;;1.70;84.00;;;;;;5022801;28;20115;-56
2021/01/15 01:37:09;;;;;;;14.40;8.85;;;1.60;84.70;;;;;;5045458;28;20051;-56
2021/01/15 01:39:35;;;;;;;15.48;8.93;;;1.60;84.90;;;;;;5026421;28;20046;-57
2021/01/15 01:42:01;;;;;;;16.50;8.75;;;1.60;85.00;;;;;;5033701;28;20084;-57
2021/01/15 01:44:27;;;;;;;15.65;8.27;;;1.80;84.20;;;;;;5026502;28;20065;-57
2021/01/15 01:46:53;;;;;;;18.02;8.73;;;1.80;84.70;;;;;;5032929;28;20091;-57
2021/01/15 01:49:21;;;;;;;15.63;8.40;;;1.70;84.50;;;;;;5006241;28;20041;-57
2021/01/15 01:51:49;;;;;;;17.17;9.52;;;1.70;84.40;;;;;;5030675;28;20138;-57
2021/01/15 01:54:15;;;;;;;14.32;8.48;;;1.60;85.20;;;;;;5031635;28;20037;-57
2021/01/15 01:56:41;;;;;;;19.25;9.35;;;1.60;85.40;;;;;;5033467;28;20516;-57
2021/01/15 01:59:07;;;;;;;14.50;8.48;;;1.60;85.50;;;;;;5029345;28;20045;-57
2021/01/15 02:01:34;;;;;;;16.02;8.82;;;1.70;85.40;;;;;;5024403;28;20048;-57
2021/01/15 02:04:04;;;;;;;14.88;8.07;;;1.70;85.50;;;;;;5027900;28;20084;-57
2021/01/15 02:06:32;;;;;;;15.90;8.95;;;1.70;85.70;;;;;;5033629;28;20041;-57
2021/01/15 02:08:57;;;;;;;17.13;9.68;;;1.60;85.70;;;;;;5028505;28;20517;-57
2021/01/15 02:11:39;;;;;;;18.95;10.02;;;1.70;85.70;;;;;;5026033;28;20069;-57
2021/01/15 02:14:39;;;;;;;14.95;8.73;;;1.80;85.10;;;;;;5025591;28;20049;-57
2021/01/15 02:17:10;;;;;;;15.05;9.07;;;1.70;85.70;;;;;;5033132;28;20048;-57
2021/01/15 02:19:50;;;;;;;17.20;9.73;;;1.70;85.90;;;;;;5027944;28;20041;-57
2021/01/15 02:22:40;;;;;;;16.90;9.38;;;1.70;86.00;;;;;;5017289;28;20034;-57
2021/01/15 02:25:50;;;;;;;15.85;9.40;;;1.60;86.30;;;;;;5030681;28;20042;-58
2021/01/15 02:28:48;;;;;;;17.48;8.70;;;1.70;86.50;;;;;;5028364;28;20045;-57
2021/01/15 02:31:24;;;;;;;18.25;9.57;;;1.70;86.20;;;;;;5011681;28;20053;-58
2021/01/15 02:34:12;;;;;;;15.13;8.77;;;1.80;85.50;;;;;;5025628;28;20072;-58
2021/01/15 02:37:02;;;;;;;16.25;9.00;;;1.70;86.00;;;;;;5012307;28;20135;-57
2021/01/15 02:39:32;;;;;;;16.67;9.40;;;1.70;86.40;;;;;;5031599;28;20041;-58
2021/01/15 02:42:01;;;;;;;14.55;9.02;;;1.70;86.60;;;;;;5031431;28;20046;-58
2021/01/15 02:44:31;;;;;;;17.13;9.27;;;1.70;86.80;;;;;;4994801;28;20053;-55
2021/01/15 02:46:59;;;;;;;16.15;10.02;;;1.60;86.80;;;;;;5031527;28;20045;-56
2021/01/15 02:49:26;;;;;;;15.13;8.95;;;1.60;87.20;;;;;;5025293;28;20490;-57
2021/01/15 02:51:53;;;;;;;14.27;8.43;;;1.60;87.40;;;;;;5035383;28;20082;-56
2021/01/15 02:54:19;;;;;;;19.15;9.70;;;1.60;87.40;;;;;;5050410;28;20062;-57
2021/01/15 02:56:44;;;;;;;19.77;9.88;;;1.60;87.50;;;;;;5042222;28;20116;-57
2021/01/15 02:59:10;;;;;;;19.25;9.57;;;1.70;86.80;;;;;;5039062;28;20038;-57
2021/01/15 03:01:52;;;;;;;15.18;9.15;;;1.80;86.10;;;;;;5033115;28;20413;-57
2021/01/15 03:04:48;;;;;;;16.83;10.25;;;1.70;86.90;;;;;;5030508;28;20095;-57
2021/01/15 03:07:15;;;;;;;18.05;9.93;;;1.70;87.20;;;;;;5030039;28;20048;-57
2021/01/15 03:09:45;;;;;;;15.27;9.18;;;1.70;86.90;;;;;;5019934;28;20068;-57
2021/01/15 03:12:13;;;;;;;17.65;9.98;;;1.60;87.20;;;;;;5032747;28;20041;-55
2021/01/15 03:14:39;;;;;;;17.42;9.48;;;1.60;87.60;;;;;;5026128;28;20073;-57
2021/01/15 03:17:07;;;;;;;20.75;9.35;;;1.60;87.70;;;;;;5028685;28;20069;-57
2021/01/15 03:19:34;;;;;;;16.27;9.45;;;1.60;87.90;;;;;;5039455;28;20112;-57
2021/01/15 03:22:16;;;;;;;16.45;9.77;;;1.60;88.00;;;;;;5036972;28;20041;-57
2021/01/15 03:24:57;;;;;;;15.18;9.35;;;1.60;88.00;;;;;;5045948;28;20072;-57
2021/01/15 03:27:24;;;;;;;15.93;9.30;;;1.70;87.60;;;;;;5029866;28;20120;-57
2021/01/15 03:29:50;;;;;;;17.90;9.80;;;1.60;87.50;;;;;;5042647;28;20040;-54
2021/01/15 03:32:16;;;;;;;17.90;9.52;;;1.60;87.60;;;;;;5031489;28;20049;-57
2021/01/15 03:34:42;;;;;;;14.98;9.30;;;1.60;87.90;;;;;;5046012;28;20099;-56
2021/01/15 03:37:08;;;;;;;18.20;9.90;;;1.60;87.80;;;;;;5039837;28;20099;-57
2021/01/15 03:39:34;;;;;;;16.15;8.95;;;1.60;88.00;;;;;;5019220;28;20063;-57
2021/01/15 03:42:00;;;;;;;18.27;10.75;;;1.60;88.10;;;;;;5031023;28;20045;-56
2021/01/15 03:44:27;;;;;;;21.05;10.05;;;1.60;88.10;;;;;;5030786;28;20069;-56
2021/01/15 03:46:56;;;;;;;16.13;9.15;;;1.60;88.30;;;;;;5023722;28;20084;-57
2021/01/15 03:49:23;;;;;;;15.95;9.93;;;1.60;88.20;;;;;;5031277;28;20053;-56
2021/01/15 03:51:48;;;;;;;19.10;9.80;;;1.50;88.00;;;;;;5028502;28;20568;-56
2021/01/15 03:54:14;;;;;;;15.38;9.23;;;1.50;88.30;;;;;;5031022;28;20137;-57
2021/01/15 03:56:40;;;;;;;17.17;10.38;;;1.50;88.40;;;;;;5029551;28;20067;-57
2021/01/15 03:59:06;;;;;;;18.08;9.43;;;1.50;88.80;;;;;;5043665;28;20484;-57
2021/01/15 04:01:34;;;;;;;17.58;10.90;;;1.50;88.60;;;;;;5035436;28;20045;-57
2021/01/15 04:04:00;;;;;;;18.70;10.55;;;1.50;88.50;;;;;;5036008;28;20145;-57
2021/01/15 04:06:26;;;;;;;17.40;9.77;;;1.50;88.30;;;;;;5028993;28;20542;-57
2021/01/15 04:08:51;;;;;;;20.02;10.10;;;1.50;88.20;;;;;;5044897;28;20088;-57
2021/01/15 04:11:18;;;;;;;17.27;10.00;;;1.60;88.30;;;;;;5023710;28;20041;-57
2021/01/15 04:13:44;;;;;;;16.23;10.20;;;1.60;88.10;;;;;;5029246;28;20045;-57
2021/01/15 04:16:16;;;;;;;17.48;10.23;;;1.60;87.90;;;;;;5025559;28;20041;-57
2021/01/15 04:18:43;;;;;;;18.67;10.45;;;1.60;87.60;;;;;;5030609;28;20056;-57
2021/01/15 04:21:09;;;;;;;16.52;9.65;;;1.60;87.90;;;;;;5029782;28;20500;-57
2021/01/15 04:23:35;;;;;;;17.40;9.82;;;1.60;87.70;;;;;;5015649;28;20037;-58
2021/01/15 04:26:01;;;;;;;16.85;9.55;;;1.60;87.50;;;;;;4999381;28;20065;-57
2021/01/15 04:28:27;;;;;;;17.15;9.85;;;1.60;87.40;;;;;;5029771;28;20068;-57
2021/01/15 04:30:53;;;;;;;18.15;10.10;;;1.70;87.70;;;;;;5030958;28;20049;-57
2021/01/15 04:33:19;;;;;;;16.63;9.63;;;1.70;87.50;;;;;;5025102;28;20044;-56
2021/01/15 04:35:44;;;;;;;17.00;9.93;;;1.70;87.10;;;;;;5024872;28;20049;-57
2021/01/15 04:38:11;;;;;;;15.02;9.27;;;1.70;87.40;;;;;;5014645;28;20137;-57
2021/01/15 04:40:37;;;;;;;17.63;9.98;;;1.70;87.00;;;;;;5031407;28;20037;-57
2021/01/15 04:43:04;;;;;;;16.85;9.57;;;1.70;87.30;;;;;;5028611;28;20044;-57
2021/01/15 04:45:30;;;;;;;18.83;10.48;;;1.80;86.80;;;;;;5021972;28;20505;-57
2021/01/15 04:47:57;;;;;;;15.00;9.32;;;1.80;86.70;;;;;;5030053;28;20084;-57
2021/01/15 04:50:23;;;;;;;16.63;9.65;;;1.80;86.60;;;;;;5019383;28;20584;-57
2021/01/15 04:52:51;;;;;;;14.77;9.07;;;1.80;86.20;;;;;;5026933;28;20140;-57
2021/01/15 04:55:19;;;;;;;14.25;8.75;;;1.90;83.90;;;;;;5030778;28;20261;-57
2021/01/15 04:57:49;;;;;;;15.63;9.73;;;1.90;84.50;;;;;;5016961;28;20398;-57
2021/01/15 05:00:22;;;;;;;15.38;9.05;;;1.90;85.00;;;;;;5023672;28;20046;-57
2021/01/15 05:02:49;;;;;;;15.50;9.40;;;1.80;85.40;;;;;;5032283;28;20087;-56
2021/01/15 05:05:27;;;;;;;15.52;9.35;;;1.80;85.10;;;;;;5027734;28;20038;-57
2021/01/15 05:08:09;;;;;;;15.65;8.98;;;1.70;85.20;;;;;;5029226;28;20456;-56
2021/01/15 05:10:40;;;;;;;16.75;8.88;;;1.70;84.80;;;;;;5030450;28;20184;-57
2021/01/15 05:13:08;;;;;;;14.38;8.82;;;1.80;85.70;;;;;;5021548;28;20494;-57
2021/01/15 05:15:36;;;;;;;16.10;8.88;;;1.80;85.60;;;;;;5025872;28;20041;-57
2021/01/15 05:18:06;;;;;;;15.70;9.45;;;1.80;85.80;;;;;;5026501;28;20043;-57
2021/01/15 05:20:32;;;;;;;14.57;8.77;;;1.80;85.00;;;;;;5018126;28;20052;-57
2021/01/15 05:23:06;;;;;;;15.68;9.00;;;1.80;84.90;;;;;;5021723;28;20045;-57
2021/01/15 05:25:34;;;;;;;16.60;9.32;;;1.80;85.00;;;;;;5032245;28;20045;-57
2021/01/15 05:28:00;;;;;;;15.27;9.30;;;1.80;84.90;;;;;;5041007;28;20453;-57
2021/01/15 05:30:27;;;;;;;15.98;9.10;;;1.80;85.60;;;;;;5028483;28;20057;-57
2021/01/15 05:32:55;;;;;;;16.15;10.23;;;1.80;85.10;;;;;;5014594;28;20049;-57
2021/01/15 05:35:22;;;;;;;15.50;9.57;;;1.80;85.70;;;;;;5017736;28;20045;-56
2021/01/15 05:37:57;;;;;;;16.15;10.05;;;1.80;85.30;;;;;;5023611;28;20037;-57
2021/01/15 05:40:37;;;;;;;16.17;10.00;;;1.80;85.50;;;;;;5023037;28;20046;-57
2021/01/15 05:43:03;;;;;;;14.95;8.85;;;1.80;85.80;;;;;;5034076;28;20048;-57
2021/01/15 05:45:28;;;;;;;15.85;9.18;;;1.70;85.50;;;;;;5026764;28;20485;-57
2021/01/15 05:47:54;;;;;;;16.17;9.48;;;1.70;85.60;;;;;;5045474;28;20581;-57
2021/01/15 05:50:20;;;;;;;14.27;8.88;;;1.70;85.30;;;;;;5041598;28;20515;-57
2021/01/15 05:52:56;;;;;;;14.90;8.93;;;1.70;85.10;;;;;;5026755;28;20042;-57
2021/01/15 05:55:23;;;;;;;14.98;9.30;;;1.70;85.40;;;;;;5039923;28;20048;-57
2021/01/15 05:57:50;;;;;;;16.63;9.85;;;1.70;85.60;;;;;;5032919;28;20069;-56
2021/01/15 06:00:24;;;;;;;15.57;9.48;;;1.70;85.80;;;;;;5038190;28;20060;-57
2021/01/15 06:02:52;;;;;;;14.68;8.95;;;1.70;85.60;;;;;;5030489;28;20449;-57
2021/01/15 06:05:21;;;;;;;14.77;9.40;;;1.70;86.00;;;;;;5033560;28;20049;-57
2021/01/15 06:07:56;;;;;;;15.82;9.70;;;1.70;85.90;;;;;;5034215;28;20049;-57
2021/01/15 06:10:23;;;;;;;16.38;9.20;;;1.70;86.40;;;;;;5031750;28;20143;-57
2021/01/15 06:12:50;;;;;;;16.00;9.02;;;1.70;86.80;;;;;;5033193;28;20132;-57
2021/01/15 06:15:16;;;;;;;15.60;9.27;;;1.70;87.00;;;;;;5032438;28;20490;-57
2021/01/15 06:17:51;;;;;;;14.25;8.95;;;1.60;87.10;;;;;;5032801;28;20505;-57
2021/01/15 06:20:21;;;;;;;15.68;9.57;;;1.60;87.00;;;;;;5023539;28;20481;-56
2021/01/15 06:22:49;;;;;;;14.73;9.57;;;1.60;87.60;;;;;;5032479;28;20555;-57
2021/01/15 06:25:18;;;;;;;14.93;9.57;;;1.60;87.10;;;;;;5032138;28;20095;-57
2021/01/15 06:27:45;;;;;;;17.00;9.57;;;1.60;86.90;;;;;;5031824;28;20091;-56
2021/01/15 06:30:24;;;;;;;18.00;9.63;;;1.60;86.70;;;;;;5031796;28;20456;-56
2021/01/15 06:32:51;;;;;;;15.20;9.77;;;1.60;86.90;;;;;;5020076;28;20069;-57
2021/01/15 06:35:33;;;;;;;16.33;9.48;;;1.60;86.60;;;;;;5031789;28;20056;-57
2021/01/15 06:38:04;;;;;;;15.35;9.07;;;1.60;86.60;;;;;;5022644;28;20041;-57
2021/01/15 06:40:47;;;;;;;16.35;9.70;;;1.60;86.70;;;;;;5028764;28;20065;-55
2021/01/15 06:43:12;;;;;;;;;;;1.60;86.80;;;;;;5028101;28;20179;-56
2021/01/15 06:45:39;;;;;;;15.18;9.25;;;1.60;86.40;;;;;;5029455;28;20003;-53
2021/01/15 06:48:17;;;;;;;15.00;9.27;;;1.60;86.60;;;;;;5028570;28;20497;-57
2021/01/15 06:50:46;;;;;;;16.00;10.23;;;1.60;86.50;;;;;;5032831;28;20103;-54
2021/01/15 06:53:24;;;;;;;16.00;9.77;;;1.70;84.80;;;;;;5030801;28;20116;-52
2021/01/15 06:56:12;;;;;;;14.25;9.27;;;1.70;84.70;;;;;;5030784;28;20053;-54
2021/01/15 06:58:41;;;;;;;17.38;10.35;;;1.70;84.90;;;;;;5034468;28;20037;-54
2021/01/15 07:01:25;;;;;;;16.50;10.57;;;1.70;84.80;;;;;;5037547;28;20056;-56
2021/01/15 07:04:18;;;;;;;18.38;10.18;;;1.70;85.40;;;;;;5028481;28;20049;-54
2021/01/15 07:06:55;;;;;;;15.98;10.15;;;1.60;84.70;;;;;;5027670;28;20045;-56
2021/01/15 07:09:25;;;;;;;17.02;10.63;;;1.60;84.50;;;;;;5028830;28;20052;-54
2021/01/15 07:11:54;;;;;;;17.55;10.45;;;1.60;85.00;;;;;;5028533;28;20038;-55
2021/01/15 07:14:27;;;;;;;18.60;10.13;;;1.60;85.40;;;;;;5030249;28;20043;-55
2021/01/15 07:16:57;;;;;;;18.73;10.68;;;1.60;85.50;;;;;;5027588;28;20433;-56
2021/01/15 07:19:55;;;;;;;17.75;10.27;;;1.60;85.70;;;;;;5023077;28;20045;-51
2021/01/15 07:22:27;;;;;;;15.75;9.88;;;1.70;86.00;;;;;;5015244;28;20106;-55
2021/01/15 07:24:57;;;;;;;18.48;10.25;;;1.70;86.00;;;;;;5030382;28;20041;-54
2021/01/15 07:27:23;;;;;;;17.45;10.68;;;1.70;85.90;;;;;;5018642;28;20037;-53
2021/01/15 07:29:49;;;;;;;15.00;9.70;;;1.60;85.10;;;;;;5008143;28;20042;-53
2021/01/15 07:32:20;;;;;;;18.65;10.63;;;1.60;85.30;;;;;;5029291;28;20486;-52
2021/01/15 07:34:51;;;;;;;18.45;10.55;;;1.60;85.40;;;;;;5026813;28;20042;-51
2021/01/15 07:37:22;;;;;;;19.55;10.18;;;1.60;85.90;;;;;;5029503;28;20068;-53
2021/01/15 07:40:04;;;;;;;17.15;10.73;;;1.60;86.50;;;;;;5031539;28;20056;-51
2021/01/15 07:42:57;;;;;;;16.83;10.38;;;1.60;85.50;;;;;;5033471;28;20072;-54
2021/01/15 07:45:22;;;;;;;17.67;10.45;;;1.60;85.80;;;;;;5029611;28;20038;-53
2021/01/15 07:47:50;;;;;;;16.98;10.88;;;1.70;85.80;;;;;;5023440;28;20099;-53
2021/01/15 07:50:28;;;;;;;17.95;10.30;;;1.60;85.80;;;;;;5028598;28;20289;-54
2021/01/15 07:53:14;;;;;;;17.23;10.20;;;1.60;85.40;;;;;;5029388;28;20517;-55
2021/01/15 07:55:56;;;;;;;17.83;10.57;;;1.60;85.40;;;;;;5029508;28;20452;-56
2021/01/15 07:58:44;;;;;;;17.63;10.68;;;1.70;85.50;;;;;;5028739;28;20048;-53
2021/01/15 08:01:18;;;;;;;18.27;11.43;;;1.70;85.50;;;;;;5027045;28;20094;-56
2021/01/15 08:03:49;;;;;;;17.88;11.07;;;1.70;85.50;;;;;;5029365;28;20390;-55
2021/01/15 08:06:16;;;;;;;18.53;10.23;;;1.70;85.30;;;;;;5028982;28;20057;-53
2021/01/15 08:09:02;;;;;;;18.58;11.23;;;1.70;85.30;;;;;;5022349;28;20399;-58
2021/01/15 08:11:30;;;;;;;19.83;11.48;;;1.70;85.70;;;;;;5027879;28;20045;-57
2021/01/15 08:14:15;;;;;;;19.95;11.32;;;1.80;85.40;;;;;;5027598;28;20038;-57
2021/01/15 08:16:42;;;;;;;18.05;10.73;;;1.80;85.90;;;;;;5032923;28;20174;-57
2021/01/15 08:19:11;;;;;;;21.10;11.25;;;1.70;86.20;;;;;;5025239;28;20472;-57
2021/01/15 08:21:39;;;;;;;19.13;11.80;;;1.70;86.50;;;;;;5025632;28;20041;-57
2021/01/15 08:24:05;;;;;;;17.98;10.77;;;1.70;86.90;;;;;;5029232;28;20060;-57
2021/01/15 08:26:50;;;;;;;20.98;11.48;;;1.70;87.00;;;;;;5026933;28;20041;-57
2021/01/15 08:29:17;;;;;;;18.00;11.35;;;1.70;87.10;;;;;;5023906;28;20071;-57
2021/01/15 08:31:43;;;;;;;19.85;11.60;;;1.70;87.30;;;;;;5027841;28;20559;-57
2021/01/15 08:34:21;;;;;;;19.25;11.07;;;1.60;87.40;;;;;;5028404;28;20046;-56
2021/01/15 08:36:56;;;;;;;19.33;11.43;;;1.60;87.60;;;;;;5026387;28;20489;-57
2021/01/15 08:39:22;;;;;;;18.20;11.45;;;1.60;87.90;;;;;;5012257;28;20214;-55
2021/01/15 08:41:55;;;;;;;19.63;11.45;;;1.60;87.80;;;;;;5021636;28;20049;-57
2021/01/15 08:44:23;;;;;;;20.45;11.25;;;1.60;87.80;;;;;;5018658;28;20037;-57
2021/01/15 08:46:53;;;;;;;21.77;10.95;;;1.70;88.10;;;;;;5024568;28;20465;-57
2021/01/15 08:49:18;;;;;;;21.92;12.02;;;1.70;88.20;;;;;;5022569;28;20383;-57
2021/01/15 08:51:50;;;;;;;18.70;11.13;;;1.70;88.30;;;;;;5029423;28;20059;-57
2021/01/15 08:54:18;;;;;;;19.55;11.68;;;1.70;88.30;;;;;;5025624;28;20050;-57
2021/01/15 08:56:46;;;;;;;20.17;11.20;;;1.70;88.30;;;;;;5031975;28;20366;-57
2021/01/15 08:59:25;;;;;;;19.80;11.23;;;1.70;88.60;;;;;;5044342;28;20524;-57
2021/01/15 09:01:57;;;;;;;19.00;10.95;;;1.80;88.40;;;;;;5037976;28;20104;-57
2021/01/15 09:04:31;;;;;;;18.92;10.95;;;1.70;88.50;;;;;;5033500;28;20037;-57
2021/01/15 09:07:00;;;;;;;17.95;10.70;;;1.70;88.70;;;;;;5032498;28;20049;-57
2021/01/15 09:09:28;;;;;;;18.10;11.27;;;1.80;88.80;;;;;;5030745;28;20079;-57
2021/01/15 09:11:54;;;;;;;20.38;11.20;;;1.80;88.70;;;;;;5021510;28;20486;-57
2021/01/15 09:14:24;;;;;;;22.42;10.70;;;1.80;88.60;;;;;;5033285;28;20351;-57
2021/01/15 09:16:52;;;;;;;18.40;11.02;;;1.90;88.90;;;;;;5029519;28;20037;-57
2021/01/15 09:19:18;;;;;;;17.42;10.45;;;1.80;89.50;;;;;;5021852;28;20084;-56
2021/01/15 09:21:48;;;;;;;20.35;11.05;;;1.90;89.00;;;;;;5021953;28;20061;-57
2021/01/15 09:24:16;;;;;;;17.38;10.50;;;1.80;89.20;;;;;;5026702;28;20041;-57
2021/01/15 09:26:42;;;;;;;17.98;10.73;;;1.80;89.40;;;;;;5031484;28;20286;-57
2021/01/15 09:29:09;;;;;;;16.33;9.98;;;1.80;89.20;;;;;;5022139;28;20049;-56
2021/01/15 09:31:37;;;;;;;17.90;10.48;;;1.90;89.60;;;;;;5027617;28;20056;-57
2021/01/15 09:34:03;;;;;;;17.73;11.00;;;1.90;89.60;;;;;;5033651;28;20040;-57
2021/01/15 09:36:28;;;;;;;17.70;10.77;;;1.90;89.70;;;;;;5033301;28;20125;-56
2021/01/15 09:38:56;;;;;;;17.00;10.35;;;1.90;89.50;;;;;;5032504;28;20037;-57
2021/01/15 09:41:22;;;;;;;19.65;11.10;;;1.90;89.80;;;;;;5032793;28;20041;-57
2021/01/15 09:43:53;;;;;;;17.05;10.27;;;1.90;89.60;;;;;;5031543;28;20037;-57
2021/01/15 09:46:24;;;;;;;17.08;10.32;;;1.90;89.80;;;;;;5009154;28;20413;-57
2021/01/15 09:48:51;;;;;;;18.40;10.35;;;1.90;90.00;;;;;;5031853;28;20057;-57
2021/01/15 09:51:20;;;;;;;15.85;10.23;;;2.00;90.00;;;;;;5033582;28;20053;-56
2021/01/15 09:53:45;;;;;;;16.73;10.57;;;2.00;90.00;;;;;;5031805;28;20053;-57
2021/01/15 09:56:20;;;;;;;16.42;10.23;;;2.00;90.10;;;;;;5031436;28;20083;-57
2021/01/15 09:58:46;;;;;;;21.52;10.55;;;2.00;90.20;;;;;;5036539;28;20048;-57
2021/01/15 10:01:11;;;;;;;16.67;9.95;;;2.00;90.20;;;;;;5035560;28;20141;-57
2021/01/15 10:03:37;;;;;;;17.02;10.63;;;2.10;90.20;;;;;;5046807;28;20041;-57
2021/01/15 10:06:03;;;;;;;17.05;10.55;;;2.10;90.10;;;;;;5032342;28;20116;-56
2021/01/15 10:08:29;;;;;;;18.42;10.27;;;2.10;90.10;;;;;;5035881;28;20045;-57
2021/01/15 10:10:54;;;;;;;16.65;10.52;;;2.10;90.00;;;;;;5033055;28;20050;-57
2021/01/15 10:13:20;;;;;;;16.10;9.80;;;2.10;90.00;;;;;;5032076;28;20555;-58
2021/01/15 10:15:45;;;;;;;16.73;10.63;;;2.10;90.00;;;;;;5035504;28;20050;-57
2021/01/15 10:18:11;;;;;;;16.50;9.98;;;2.10;90.10;;;;;;5040637;28;20529;-57
2021/01/15 10:20:43;;;;;;;17.00;10.90;;;2.10;90.10;;;;;;5036824;28;20044;-57
2021/01/15 10:23:09;;;;;;;17.65;10.20;;;2.10;90.20;;;;;;5041565;28;20061;-57
2021/01/15 10:25:34;;;;;;;17.95;10.30;;;2.20;90.10;;;;;;5031435;28;20072;-58
2021/01/15 10:28:00;;;;;;;16.95;10.00;;;2.20;90.20;;;;;;5031527;28;20045;-58
2021/01/15 10:30:26;;;;;;;16.08;10.05;;;2.20;90.10;;;;;;5030199;28;20116;-57
2021/01/15 10:32:51;;;;;;;16.70;10.18;;;2.30;90.00;;;;;;5032475;28;20072;-57
2021/01/15 10:35:17;;;;;;;15.43;9.48;;;2.30;90.00;;;;;;5036379;28;20047;-58
2021/01/15 10:37:43;;;;;;;16.40;9.60;;;2.30;90.00;;;;;;5045425;28;20044;-58
2021/01/15 10:40:09;;;;;;;16.25;9.98;;;2.30;90.00;;;;;;5033063;28;20041;-57
2021/01/15 10:42:39;;;;;;;17.48;10.63;;;2.30;90.00;;;;;;5031118;28;20042;-57
2021/01/15 10:45:06;;;;;;;17.55;9.73;;;2.40;90.00;;;;;;5042641;28;20053;-58
2021/01/15 10:47:31;;;;;;;17.63;10.13;;;2.40;90.00;;;;;;5031200;28;20585;-58
2021/01/15 10:49:57;;;;;;;14.95;9.68;;;2.40;90.00;;;;;;5033701;28;20036;-58
2021/01/15 10:52:24;;;;;;;17.58;10.40;;;2.40;90.00;;;;;;5029768;28;20448;-58
2021/01/15 10:54:50;;;;;;;15.95;10.00;;;2.40;90.00;;;;;;5031545;28;20029;-58
2021/01/15 10:57:16;;;;;;;17.10;9.80;;;2.40;90.00;;;;;;5030341;28;20127;-58
2021/01/15 10:59:42;;;;;;;16.83;10.13;;;2.40;90.20;;;;;;5034061;28;20495;-58
2021/01/15 11:02:08;;;;;;;14.57;9.55;;;2.40;90.00;;;;;;5030354;28;20260;-57
2021/01/15 11:04:33;;;;;;;18.38;10.32;;;2.40;90.00;;;;;;5039869;28;20049;-58
2021/01/15 11:07:00;;;;;;;16.73;10.27;;;2.40;89.80;;;;;;5044427;28;20196;-58
2021/01/15 11:09:26;;;;;;;15.50;10.02;;;2.40;89.80;;;;;;5017588;28;20068;-58
2021/01/15 11:11:53;;;;;;;16.67;9.77;;;2.40;89.50;;;;;;5034654;28;20491;-57
2021/01/15 11:14:19;;;;;;;15.73;9.60;;;2.40;89.80;;;;;;5030166;28;20528;-56
2021/01/15 11:16:45;;;;;;;16.27;8.93;;;2.40;89.60;;;;;;5030811;28;20048;-58
2021/01/15 11:19:12;;;;;;;14.23;9.75;;;2.40;89.70;;;;;;5029683;28;20041;-57
2021/01/15 11:21:38;;;;;;;16.83;10.27;;;2.50;89.80;;;;;;5031187;28;20103;-55
2021/01/15 11:24:04;;;;;;;16.90;9.70;;;2.40;89.80;;;;;;5026955;28;20453;-57
2021/01/15 11:26:31;;;;;;;15.38;9.25;;;2.50;89.70;;;;;;5035376;28;20514;-58
2021/01/15 11:29:02;;;;;;;17.77;10.02;;;2.40;90.00;;;;;;5028824;28;20406;-57
2021/01/15 11:31:28;;;;;;;14.95;9.63;;;2.50;89.30;;;;;;5023308;28;20056;-58
2021/01/15 11:33:54;;;;;;;16.20;9.90;;;2.50;89.50;;;;;;5029856;28;20116;-55
2021/01/15 11:36:21;;;;;;;14.60;9.10;;;2.50;89.60;;;;;;5028858;28;20037;-58
2021/01/15 11:38:47;;;;;;;16.48;9.50;;;2.50;89.60;;;;;;5030456;28;20053;-58
2021/01/15 11:41:15;;;;;;;18.20;9.45;;;2.50;89.20;;;;;;5029744;28;20121;-56
2021/01/15 11:43:42;;;;;;;16.52;9.75;;;2.60;89.40;;;;;;5029351;28;20072;-58
2021/01/15 11:46:08;;;;;;;15.32;9.38;;;2.60;89.10;;;;;;5029688;28;20037;-57
2021/01/15 11:48:34;;;;;;;14.68;9.30;;;2.60;89.10;;;;;;5019368;28;20052;-58
2021/01/15 11:51:01;;;;;;;17.83;9.35;;;2.60;88.90;;;;;;5033724;28;20041;-57
2021/01/15 11:53:32;;;;;;;15.07;9.10;;;2.70;89.10;;;;;;5033813;28;20095;-57
2021/01/15 11:55:59;;;;;;;15.32;9.32;;;2.60;88.60;;;;;;5030864;28;20053;-57
2021/01/15 11:58:25;;;;;;;17.05;9.23;;;2.70;87.70;;;;;;5034353;28;20049;-58
2021/01/15 12:00:51;;;;;;;17.55;10.32;;;2.70;87.70;;;;;;5031218;28;20124;-56
2021/01/15 12:03:17;;;;;;;19.50;11.82;;;2.70;88.00;;;;;;5033153;28;20109;-57
2021/01/15 12:05:44;;;;;;;19.63;11.50;;;2.70;88.10;;;;;;5037100;28;20047;-57
2021/01/15 12:08:10;;;;;;;16.42;10.77;;;2.70;87.30;;;;;;5029551;28;20184;-55
2021/01/15 12:10:35;;;;;;;24.52;14.32;;;2.70;87.50;;;;;;5031293;28;20128;-56
2021/01/15 12:13:01;;;;;;;21.02;12.68;;;2.80;86.70;;;;;;5024436;28;20073;-57
2021/01/15 12:15:27;;;;;;;18.80;10.93;;;2.90;86.60;;;;;;5029980;28;20061;-56
2021/01/15 12:17:53;;;;;;;19.85;12.32;;;2.90;86.10;;;;;;5030143;28;20119;-55
2021/01/15 12:20:19;;;;;;;19.60;13.43;;;2.80;86.00;;;;;;5035976;28;20037;-57
2021/01/15 12:22:47;;;;;;;17.63;11.27;;;2.90;85.60;;;;;;5031710;28;20131;-56
2021/01/15 12:25:13;;;;;;;16.52;10.43;;;2.90;85.10;;;;;;5011447;28;20037;-56
2021/01/15 12:27:38;;;;;;;22.55;12.60;;;2.90;85.00;;;;;;5029356;28;20052;-57
2021/01/15 12:30:06;;;;;;;15.32;9.68;;;2.90;84.20;;;;;;5030326;28;20538;-55
2021/01/15 12:32:32;;;;;;;16.98;9.38;;;2.90;85.00;;;;;;5029228;28;20056;-56
2021/01/15 12:34:58;;;;;;;19.42;10.35;;;3.00;83.40;;;;;;5029229;28;20075;-57
2021/01/15 12:37:27;;;;;;;14.82;8.43;;;3.00;83.20;;;;;;5024133;28;20049;-56
2021/01/15 12:39:54;;;;;;;14.95;8.05;;;3.00;83.20;;;;;;5028673;28;20121;-56
2021/01/15 12:42:20;;;;;;;14.07;8.35;;;3.00;82.90;;;;;;5029706;28;20038;-57
2021/01/15 12:44:46;;;;;;;12.10;7.45;;;3.10;81.40;;;;;;5031434;28;20453;-57
2021/01/15 12:47:12;;;;;;;13.82;7.90;;;3.20;78.90;;;;;;5028994;28;20056;-57
2021/01/15 12:49:38;;;;;;;14.38;7.60;;;3.20;77.70;;;;;;5028193;28;20052;-57
2021/01/15 12:52:04;;;;;;;12.95;8.18;;;3.10;79.00;;;;;;5032985;28;20405;-57
2021/01/15 12:54:29;;;;;;;15.77;8.60;;;3.10;78.30;;;;;;5030022;28;20037;-57